sensor_id;sensor_type;location;lat;lon;timestamp;temperature;humidity
10010;DHT22;5044;48.652;9.250;2023-02-22T00:00:33;4.80;99.90
10010;DHT22;5044;48.652;9.250;2023-02-22T00:03:08;4.80;99.90
10010;DHT22;5044;48.652;9.250;2023-02-22T00:05:36;5.20;99.90
10010;DHT22;5044;48.652;9.250;2023-02-22T00:08:05;5.00;99.90
10010;DHT22;5044;48.652;9.250;2023-02-22T00:10:34;5.10;99.90
10010;DHT22;5044;48.652;9.250;2023-02-22T00:13:05;4.70;99.90
10010;DHT22;5044;48.652;9.250;2023-02-22T00:15:33;5.10;99.90
10010;DHT22;5044;48.652;9.250;2023-02-22T00:18:01;4.70;99.90
10010;DHT22;5044;48.652;9.250;2023-02-22T00:20:29;4.70;99.90
10010;DHT22;5044;48.652;9.250;2023-02-22T00:22:57;4.80;99.90
10010;DHT22;5044;48.652;9.250;2023-02-22T00:25:26;4.60;99.90
10010;DHT22;5044;48.652;9.250;2023-02-22T00:27:53;4.70;99.90
10010;DHT22;5044;48.652;9.250;2023-02-22T00:30:24;4.60;99.90
10010;DHT22;5044;48.652;9.250;2023-02-22T00:32:53;4.60;99.90
10010;DHT22;5044;48.652;9.250;2023-02-22T00:35:22;4.60;99.90
10010;DHT22;5044;48.652;9.250;2023-02-22T00:37:50;4.60;99.90
10010;DHT22;5044;48.652;9.250;2023-02-22T00:40:19;4.50;99.90
10010;DHT22;5044;48.652;9.250;2023-02-22T00:42:47;4.50;99.90
10010;DHT22;5044;48.652;9.250;2023-02-22T00:45:16;4.90;99.90
10010;DHT22;5044;48.652;9.250;2023-02-22T00:47:44;4.50;99.90
10010;DHT22;5044;48.652;9.250;2023-02-22T00:50:14;4.50;99.90
10010;DHT22;5044;48.652;9.250;2023-02-22T00:52:41;4.50;99.90
10010;DHT22;5044;48.652;9.250;2023-02-22T00:55:13;4.50;99.90
10010;DHT22;5044;48.652;9.250;2023-02-22T00:57:40;4.50;99.90
10010;DHT22;5044;48.652;9.250;2023-02-22T01:00:13;4.50;99.90
10010;DHT22;5044;48.652;9.250;2023-02-22T01:02:41;4.40;99.90
10010;DHT22;5044;48.652;9.250;2023-02-22T01:05:12;4.60;99.90
10010;DHT22;5044;48.652;9.250;2023-02-22T01:07:39;4.40;99.90
10010;DHT22;5044;48.652;9.250;2023-02-22T01:10:08;4.40;99.90
10010;DHT22;5044;48.652;9.250;2023-02-22T01:12:36;4.40;99.90
10010;DHT22;5044;48.652;9.250;2023-02-22T01:15:04;4.40;99.90
10010;DHT22;5044;48.652;9.250;2023-02-22T01:17:35;4.30;99.90
10010;DHT22;5044;48.652;9.250;2023-02-22T01:20:05;4.40;99.90
10010;DHT22;5044;48.652;9.250;2023-02-22T01:22:36;4.30;99.90
10010;DHT22;5044;48.652;9.250;2023-02-22T01:25:03;4.30;99.90
10010;DHT22;5044;48.652;9.250;2023-02-22T01:27:32;4.30;99.90
10010;DHT22;5044;48.652;9.250;2023-02-22T01:29:59;4.60;99.90
10010;DHT22;5044;48.652;9.250;2023-02-22T01:32:26;4.30;99.90
10010;DHT22;5044;48.652;9.250;2023-02-22T01:34:53;4.30;99.90
10010;DHT22;5044;48.652;9.250;2023-02-22T01:37:20;4.70;99.90
10010;DHT22;5044;48.652;9.250;2023-02-22T01:39:49;4.80;99.90
10010;DHT22;5044;48.652;9.250;2023-02-22T01:42:16;4.30;99.90
10010;DHT22;5044;48.652;9.250;2023-02-22T01:44:43;4.30;99.90
10010;DHT22;5044;48.652;9.250;2023-02-22T01:47:09;4.30;99.90
10010;DHT22;5044;48.652;9.250;2023-02-22T01:49:40;5.00;99.90
10010;DHT22;5044;48.652;9.250;2023-02-22T01:52:11;4.30;99.90
10010;DHT22;5044;48.652;9.250;2023-02-22T01:54:42;4.20;99.90
10010;DHT22;5044;48.652;9.250;2023-02-22T01:57:16;4.40;99.90
10010;DHT22;5044;48.652;9.250;2023-02-22T01:59:48;4.10;99.90
10010;DHT22;5044;48.652;9.250;2023-02-22T02:02:17;4.10;99.90
10010;DHT22;5044;48.652;9.250;2023-02-22T02:04:46;4.60;99.90
10010;DHT22;5044;48.652;9.250;2023-02-22T02:07:17;4.20;99.90
10010;DHT22;5044;48.652;9.250;2023-02-22T02:09:55;4.20;99.90
10010;DHT22;5044;48.652;9.250;2023-02-22T02:12:25;4.10;99.90
10010;DHT22;5044;48.652;9.250;2023-02-22T02:15:10;4.10;99.90
10010;DHT22;5044;48.652;9.250;2023-02-22T02:17:40;4.00;99.90
10010;DHT22;5044;48.652;9.250;2023-02-22T02:20:14;4.00;99.90
10010;DHT22;5044;48.652;9.250;2023-02-22T02:22:50;4.00;99.90
10010;DHT22;5044;48.652;9.250;2023-02-22T02:25:48;4.00;99.90
10010;DHT22;5044;48.652;9.250;2023-02-22T02:28:54;3.90;99.90
10010;DHT22;5044;48.652;9.250;2023-02-22T02:34:33;3.90;99.90
10010;DHT22;5044;48.652;9.250;2023-02-22T02:37:08;3.90;99.90
10010;DHT22;5044;48.652;9.250;2023-02-22T02:39:42;3.80;99.90
10010;DHT22;5044;48.652;9.250;2023-02-22T02:42:17;4.10;99.90
10010;DHT22;5044;48.652;9.250;2023-02-22T02:44:50;3.80;99.90
10010;DHT22;5044;48.652;9.250;2023-02-22T02:47:24;3.80;99.90
10010;DHT22;5044;48.652;9.250;2023-02-22T02:50:00;3.80;99.90
10010;DHT22;5044;48.652;9.250;2023-02-22T02:52:31;3.70;99.90
10010;DHT22;5044;48.652;9.250;2023-02-22T02:55:02;3.70;99.90
10010;DHT22;5044;48.652;9.250;2023-02-22T02:57:29;3.70;99.90
10010;DHT22;5044;48.652;9.250;2023-02-22T02:59:56;3.60;99.90
10010;DHT22;5044;48.652;9.250;2023-02-22T03:02:48;3.50;99.90
10010;DHT22;5044;48.652;9.250;2023-02-22T03:05:33;3.10;99.90
10010;DHT22;5044;48.652;9.250;2023-02-22T03:08:08;3.60;99.90
10010;DHT22;5044;48.652;9.250;2023-02-22T03:10:45;3.60;99.90
10010;DHT22;5044;48.652;9.250;2023-02-22T03:13:18;3.50;99.90
10010;DHT22;5044;48.652;9.250;2023-02-22T03:15:51;4.00;99.90
10010;DHT22;5044;48.652;9.250;2023-02-22T03:18:24;3.60;99.90
10010;DHT22;5044;48.652;9.250;2023-02-22T03:21:00;3.40;99.90
10010;DHT22;5044;48.652;9.250;2023-02-22T03:23:36;3.40;99.90
10010;DHT22;5044;48.652;9.250;2023-02-22T03:26:11;3.60;99.90
10010;DHT22;5044;48.652;9.250;2023-02-22T03:28:41;3.30;99.90
10010;DHT22;5044;48.652;9.250;2023-02-22T03:31:14;3.30;99.90
10010;DHT22;5044;48.652;9.250;2023-02-22T03:33:47;3.30;99.90
10010;DHT22;5044;48.652;9.250;2023-02-22T03:36:20;3.30;99.90
10010;DHT22;5044;48.652;9.250;2023-02-22T03:38:52;3.30;99.90
10010;DHT22;5044;48.652;9.250;2023-02-22T03:41:23;3.20;99.90
10010;DHT22;5044;48.652;9.250;2023-02-22T03:43:54;3.20;99.90
10010;DHT22;5044;48.652;9.250;2023-02-22T03:46:23;3.20;99.90
10010;DHT22;5044;48.652;9.250;2023-02-22T03:48:58;3.10;99.90
10010;DHT22;5044;48.652;9.250;2023-02-22T03:51:28;3.10;99.90
10010;DHT22;5044;48.652;9.250;2023-02-22T03:53:55;3.10;99.90
10010;DHT22;5044;48.652;9.250;2023-02-22T03:56:27;3.00;99.90
10010;DHT22;5044;48.652;9.250;2023-02-22T03:59:01;3.30;99.90
10010;DHT22;5044;48.652;9.250;2023-02-22T04:01:29;3.40;99.90
10010;DHT22;5044;48.652;9.250;2023-02-22T04:03:56;2.90;99.90
10010;DHT22;5044;48.652;9.250;2023-02-22T04:06:24;2.90;99.90
10010;DHT22;5044;48.652;9.250;2023-02-22T04:08:53;2.90;99.90
10010;DHT22;5044;48.652;9.250;2023-02-22T04:11:21;3.30;99.90
10010;DHT22;5044;48.652;9.250;2023-02-22T04:13:52;2.70;99.90
10010;DHT22;5044;48.652;9.250;2023-02-22T04:16:21;2.80;99.90
10010;DHT22;5044;48.652;9.250;2023-02-22T04:18:49;2.70;99.90
10010;DHT22;5044;48.652;9.250;2023-02-22T04:21:16;2.70;99.90
10010;DHT22;5044;48.652;9.250;2023-02-22T04:23:44;2.70;99.90
10010;DHT22;5044;48.652;9.250;2023-02-22T04:26:18;3.20;99.90
10010;DHT22;5044;48.652;9.250;2023-02-22T04:28:44;2.60;99.90
10010;DHT22;5044;48.652;9.250;2023-02-22T04:31:12;2.60;99.90
10010;DHT22;5044;48.652;9.250;2023-02-22T04:33:39;2.60;99.90
10010;DHT22;5044;48.652;9.250;2023-02-22T04:36:07;2.60;99.90
10010;DHT22;5044;48.652;9.250;2023-02-22T04:38:38;2.50;99.90
10010;DHT22;5044;48.652;9.250;2023-02-22T04:41:05;2.50;99.90
10010;DHT22;5044;48.652;9.250;2023-02-22T04:43:33;2.50;99.90
10010;DHT22;5044;48.652;9.250;2023-02-22T04:46:05;2.40;99.90
10010;DHT22;5044;48.652;9.250;2023-02-22T04:48:33;2.40;99.90
10010;DHT22;5044;48.652;9.250;2023-02-22T04:51:03;2.40;99.90
10010;DHT22;5044;48.652;9.250;2023-02-22T04:53:31;2.30;99.90
10010;DHT22;5044;48.652;9.250;2023-02-22T04:55:58;2.30;99.90
10010;DHT22;5044;48.652;9.250;2023-02-22T04:58:26;2.40;99.90
10010;DHT22;5044;48.652;9.250;2023-02-22T05:00:56;2.30;99.90
10010;DHT22;5044;48.652;9.250;2023-02-22T05:03:25;2.70;99.90
10010;DHT22;5044;48.652;9.250;2023-02-22T05:05:53;2.30;99.90
10010;DHT22;5044;48.652;9.250;2023-02-22T05:08:23;2.20;99.90
10010;DHT22;5044;48.652;9.250;2023-02-22T05:10:50;2.20;99.90
10010;DHT22;5044;48.652;9.250;2023-02-22T05:13:18;2.20;99.90
10010;DHT22;5044;48.652;9.250;2023-02-22T05:15:46;2.20;99.90
10010;DHT22;5044;48.652;9.250;2023-02-22T05:18:18;2.20;99.90
10010;DHT22;5044;48.652;9.250;2023-02-22T05:20:46;2.10;99.90
10010;DHT22;5044;48.652;9.250;2023-02-22T05:23:13;2.10;99.90
10010;DHT22;5044;48.652;9.250;2023-02-22T05:25:40;1.80;99.90
10010;DHT22;5044;48.652;9.250;2023-02-22T05:28:11;2.10;99.90
10010;DHT22;5044;48.652;9.250;2023-02-22T05:30:43;2.10;99.90
10010;DHT22;5044;48.652;9.250;2023-02-22T05:33:12;2.00;99.90
10010;DHT22;5044;48.652;9.250;2023-02-22T05:35:41;2.10;99.90
10010;DHT22;5044;48.652;9.250;2023-02-22T05:38:09;2.00;99.90
10010;DHT22;5044;48.652;9.250;2023-02-22T05:40:40;2.60;99.90
10010;DHT22;5044;48.652;9.250;2023-02-22T05:43:20;2.10;99.90
10010;DHT22;5044;48.652;9.250;2023-02-22T05:45:48;2.00;99.90
10010;DHT22;5044;48.652;9.250;2023-02-22T05:48:15;2.00;99.90
10010;DHT22;5044;48.652;9.250;2023-02-22T05:50:49;2.10;99.90
10010;DHT22;5044;48.652;9.250;2023-02-22T05:53:19;2.50;99.90
10010;DHT22;5044;48.652;9.250;2023-02-22T05:55:48;2.00;99.90
10010;DHT22;5044;48.652;9.250;2023-02-22T05:58:15;1.80;99.90
10010;DHT22;5044;48.652;9.250;2023-02-22T06:00:53;2.00;99.90
10010;DHT22;5044;48.652;9.250;2023-02-22T06:03:20;2.00;99.90
10010;DHT22;5044;48.652;9.250;2023-02-22T06:05:49;1.90;99.90
10010;DHT22;5044;48.652;9.250;2023-02-22T06:08:16;1.90;99.90
10010;DHT22;5044;48.652;9.250;2023-02-22T06:10:44;2.00;99.90
10010;DHT22;5044;48.652;9.250;2023-02-22T06:13:12;1.90;99.90
10010;DHT22;5044;48.652;9.250;2023-02-22T06:15:40;1.90;99.90
10010;DHT22;5044;48.652;9.250;2023-02-22T06:18:07;1.90;99.90
10010;DHT22;5044;48.652;9.250;2023-02-22T06:20:38;1.90;99.90
10010;DHT22;5044;48.652;9.250;2023-02-22T06:23:11;1.90;99.90
10010;DHT22;5044;48.652;9.250;2023-02-22T06:25:38;1.90;99.90
10010;DHT22;5044;48.652;9.250;2023-02-22T06:28:11;1.90;99.90
10010;DHT22;5044;48.652;9.250;2023-02-22T06:30:39;1.50;99.90
10010;DHT22;5044;48.652;9.250;2023-02-22T06:33:07;2.10;99.90
10010;DHT22;5044;48.652;9.250;2023-02-22T06:35:37;2.30;99.90
10010;DHT22;5044;48.652;9.250;2023-02-22T06:38:08;1.40;99.90
10010;DHT22;5044;48.652;9.250;2023-02-22T06:40:42;2.00;99.90
10010;DHT22;5044;48.652;9.250;2023-02-22T06:43:12;2.00;99.90
10010;DHT22;5044;48.652;9.250;2023-02-22T06:45:40;2.00;99.90
10010;DHT22;5044;48.652;9.250;2023-02-22T06:48:08;2.40;99.90
10010;DHT22;5044;48.652;9.250;2023-02-22T06:50:35;2.00;99.90
10010;DHT22;5044;48.652;9.250;2023-02-22T06:53:04;2.60;99.90
10010;DHT22;5044;48.652;9.250;2023-02-22T06:55:34;2.10;99.90
10010;DHT22;5044;48.652;9.250;2023-02-22T06:58:03;2.60;99.90
10010;DHT22;5044;48.652;9.250;2023-02-22T07:00:32;2.20;99.90
10010;DHT22;5044;48.652;9.250;2023-02-22T07:03:00;2.80;99.90
10010;DHT22;5044;48.652;9.250;2023-02-22T07:05:30;2.20;99.90
10010;DHT22;5044;48.652;9.250;2023-02-22T07:08:03;2.20;99.90
10010;DHT22;5044;48.652;9.250;2023-02-22T07:10:33;2.30;99.90
10010;DHT22;5044;48.652;9.250;2023-02-22T07:13:12;2.40;99.90
10010;DHT22;5044;48.652;9.250;2023-02-22T07:15:42;2.50;99.90
10010;DHT22;5044;48.652;9.250;2023-02-22T07:18:09;2.60;99.90
10010;DHT22;5044;48.652;9.250;2023-02-22T07:20:42;2.70;99.90
10010;DHT22;5044;48.652;9.250;2023-02-22T07:23:12;2.70;99.90
10010;DHT22;5044;48.652;9.250;2023-02-22T07:25:42;2.80;99.90
10010;DHT22;5044;48.652;9.250;2023-02-22T07:28:10;2.90;99.90
10010;DHT22;5044;48.652;9.250;2023-02-22T07:30:38;3.00;99.90
10010;DHT22;5044;48.652;9.250;2023-02-22T07:33:09;3.40;99.90
10010;DHT22;5044;48.652;9.250;2023-02-22T07:35:38;3.20;99.90
10010;DHT22;5044;48.652;9.250;2023-02-22T07:38:19;3.40;99.90
10010;DHT22;5044;48.652;9.250;2023-02-22T07:40:57;3.50;99.90
10010;DHT22;5044;48.652;9.250;2023-02-22T07:43:26;3.60;99.90
10010;DHT22;5044;48.652;9.250;2023-02-22T07:45:55;3.70;99.90
10010;DHT22;5044;48.652;9.250;2023-02-22T07:48:25;3.90;99.90
10010;DHT22;5044;48.652;9.250;2023-02-22T07:50:55;3.90;99.90
10010;DHT22;5044;48.652;9.250;2023-02-22T07:53:24;4.10;99.90
10010;DHT22;5044;48.652;9.250;2023-02-22T07:55:52;4.20;99.90
10010;DHT22;5044;48.652;9.250;2023-02-22T07:58:23;4.30;99.90
10010;DHT22;5044;48.652;9.250;2023-02-22T08:00:51;4.40;99.90
10010;DHT22;5044;48.652;9.250;2023-02-22T08:03:19;4.50;99.90
10010;DHT22;5044;48.652;9.250;2023-02-22T08:05:50;4.90;99.90
10010;DHT22;5044;48.652;9.250;2023-02-22T08:08:18;5.10;99.90
10010;DHT22;5044;48.652;9.250;2023-02-22T08:10:45;5.50;99.90
10010;DHT22;5044;48.652;9.250;2023-02-22T08:13:13;5.70;99.90
10010;DHT22;5044;48.652;9.250;2023-02-22T08:15:42;5.90;99.90
10010;DHT22;5044;48.652;9.250;2023-02-22T08:18:14;6.10;99.90
10010;DHT22;5044;48.652;9.250;2023-02-22T08:20:43;6.40;99.90
10010;DHT22;5044;48.652;9.250;2023-02-22T08:23:11;6.60;99.90
10010;DHT22;5044;48.652;9.250;2023-02-22T08:25:38;6.90;99.90
10010;DHT22;5044;48.652;9.250;2023-02-22T08:28:07;7.00;99.90
10010;DHT22;5044;48.652;9.250;2023-02-22T08:30:38;7.20;99.90
10010;DHT22;5044;48.652;9.250;2023-02-22T08:33:08;7.30;99.90
10010;DHT22;5044;48.652;9.250;2023-02-22T08:35:38;7.80;99.90
10010;DHT22;5044;48.652;9.250;2023-02-22T08:38:06;7.70;99.90
10010;DHT22;5044;48.652;9.250;2023-02-22T08:40:35;8.00;99.90
10010;DHT22;5044;48.652;9.250;2023-02-22T08:43:02;8.40;99.90
10010;DHT22;5044;48.652;9.250;2023-02-22T08:45:29;8.30;99.90
10010;DHT22;5044;48.652;9.250;2023-02-22T08:47:56;8.40;99.90
10010;DHT22;5044;48.652;9.250;2023-02-22T08:50:26;8.70;99.90
10010;DHT22;5044;48.652;9.250;2023-02-22T08:52:55;8.80;99.90
10010;DHT22;5044;48.652;9.250;2023-02-22T08:55:28;9.20;99.90
10010;DHT22;5044;48.652;9.250;2023-02-22T08:57:56;9.40;99.90
10010;DHT22;5044;48.652;9.250;2023-02-22T09:00:23;9.60;99.90
10010;DHT22;5044;48.652;9.250;2023-02-22T09:02:51;9.90;99.20
10010;DHT22;5044;48.652;9.250;2023-02-22T09:05:18;10.10;98.50
10010;DHT22;5044;48.652;9.250;2023-02-22T09:07:46;10.40;97.30
10010;DHT22;5044;48.652;9.250;2023-02-22T09:10:15;10.60;96.40
10010;DHT22;5044;48.652;9.250;2023-02-22T09:12:42;10.90;93.60
10010;DHT22;5044;48.652;9.250;2023-02-22T09:15:10;10.80;95.20
10010;DHT22;5044;48.652;9.250;2023-02-22T09:17:37;11.00;96.80
10010;DHT22;5044;48.652;9.250;2023-02-22T09:20:05;11.30;96.00
10010;DHT22;5044;48.652;9.250;2023-02-22T09:22:33;11.50;94.90
10010;DHT22;5044;48.652;9.250;2023-02-22T09:25:01;11.60;94.50
10010;DHT22;5044;48.652;9.250;2023-02-22T09:27:28;11.60;92.50
10010;DHT22;5044;48.652;9.250;2023-02-22T09:29:55;11.80;93.10
10010;DHT22;5044;48.652;9.250;2023-02-22T09:32:22;12.00;94.40
10010;DHT22;5044;48.652;9.250;2023-02-22T09:34:52;12.10;93.60
10010;DHT22;5044;48.652;9.250;2023-02-22T09:37:20;12.10;88.10
10010;DHT22;5044;48.652;9.250;2023-02-22T09:39:47;12.30;92.30
10010;DHT22;5044;48.652;9.250;2023-02-22T09:42:24;12.50;92.80
10010;DHT22;5044;48.652;9.250;2023-02-22T09:45:00;12.80;89.90
10010;DHT22;5044;48.652;9.250;2023-02-22T09:47:39;13.00;91.80
10010;DHT22;5044;48.652;9.250;2023-02-22T09:50:09;13.20;88.40
10010;DHT22;5044;48.652;9.250;2023-02-22T09:52:50;13.40;90.50
10010;DHT22;5044;48.652;9.250;2023-02-22T09:55:27;13.40;90.70
10010;DHT22;5044;48.652;9.250;2023-02-22T09:58:02;13.50;87.20
10010;DHT22;5044;48.652;9.250;2023-02-22T10:00:31;13.70;87.30
10010;DHT22;5044;48.652;9.250;2023-02-22T10:03:08;13.90;86.10
10010;DHT22;5044;48.652;9.250;2023-02-22T10:05:40;13.80;85.40
10010;DHT22;5044;48.652;9.250;2023-02-22T10:08:11;13.90;81.00
10010;DHT22;5044;48.652;9.250;2023-02-22T10:10:40;13.90;79.00
10010;DHT22;5044;48.652;9.250;2023-02-22T10:13:17;14.10;82.50
10010;DHT22;5044;48.652;9.250;2023-02-22T10:15:54;13.90;77.60
10010;DHT22;5044;48.652;9.250;2023-02-22T10:18:48;13.90;90.00
10010;DHT22;5044;48.652;9.250;2023-02-22T10:21:35;14.40;86.80
10010;DHT22;5044;48.652;9.250;2023-02-22T10:24:11;14.40;77.20
10010;DHT22;5044;48.652;9.250;2023-02-22T10:26:42;14.40;83.90
10010;DHT22;5044;48.652;9.250;2023-02-22T10:29:18;14.70;81.20
10010;DHT22;5044;48.652;9.250;2023-02-22T10:31:51;14.30;72.90
10010;DHT22;5044;48.652;9.250;2023-02-22T10:34:24;14.30;79.50
10010;DHT22;5044;48.652;9.250;2023-02-22T10:36:56;14.20;79.20
10010;DHT22;5044;48.652;9.250;2023-02-22T10:39:27;14.20;74.60
10010;DHT22;5044;48.652;9.250;2023-02-22T10:41:57;13.70;74.60
10010;DHT22;5044;48.652;9.250;2023-02-22T10:44:31;13.90;74.10
10010;DHT22;5044;48.652;9.250;2023-02-22T10:47:00;13.30;72.20
10010;DHT22;5044;48.652;9.250;2023-02-22T10:49:34;13.40;73.10
10010;DHT22;5044;48.652;9.250;2023-02-22T10:52:12;13.60;74.70
10010;DHT22;5044;48.652;9.250;2023-02-22T10:54:41;13.60;72.20
10010;DHT22;5044;48.652;9.250;2023-02-22T10:57:10;13.30;75.00
10010;DHT22;5044;48.652;9.250;2023-02-22T10:59:40;13.40;75.20
10010;DHT22;5044;48.652;9.250;2023-02-22T11:02:17;13.30;75.30
10010;DHT22;5044;48.652;9.250;2023-02-22T11:04:48;13.40;76.40
10010;DHT22;5044;48.652;9.250;2023-02-22T11:07:20;13.10;72.60
10010;DHT22;5044;48.652;9.250;2023-02-22T11:09:50;13.70;87.40
10010;DHT22;5044;48.652;9.250;2023-02-22T11:12:20;14.20;81.20
10010;DHT22;5044;48.652;9.250;2023-02-22T11:14:49;14.40;71.00
10010;DHT22;5044;48.652;9.250;2023-02-22T11:17:21;14.40;72.90
10010;DHT22;5044;48.652;9.250;2023-02-22T11:19:50;14.50;71.70
10010;DHT22;5044;48.652;9.250;2023-02-22T11:22:22;14.60;71.30
10010;DHT22;5044;48.652;9.250;2023-02-22T11:24:53;14.70;71.00
10010;DHT22;5044;48.652;9.250;2023-02-22T11:27:32;14.80;76.70
10010;DHT22;5044;48.652;9.250;2023-02-22T11:30:24;14.90;68.70
10010;DHT22;5044;48.652;9.250;2023-02-22T11:32:55;15.00;75.60
10010;DHT22;5044;48.652;9.250;2023-02-22T11:35:35;14.80;67.30
10010;DHT22;5044;48.652;9.250;2023-02-22T11:38:14;14.80;68.70
10010;DHT22;5044;48.652;9.250;2023-02-22T11:40:42;15.10;73.70
10010;DHT22;5044;48.652;9.250;2023-02-22T11:43:15;15.50;75.10
10010;DHT22;5044;48.652;9.250;2023-02-22T11:46:01;15.30;64.50
10010;DHT22;5044;48.652;9.250;2023-02-22T11:48:31;15.20;64.80
10010;DHT22;5044;48.652;9.250;2023-02-22T11:51:15;15.50;75.90
10010;DHT22;5044;48.652;9.250;2023-02-22T11:54:03;15.70;68.30
10010;DHT22;5044;48.652;9.250;2023-02-22T11:56:38;16.00;66.60
10010;DHT22;5044;48.652;9.250;2023-02-22T11:59:14;15.50;60.80
10010;DHT22;5044;48.652;9.250;2023-02-22T12:01:51;15.80;75.80
10010;DHT22;5044;48.652;9.250;2023-02-22T12:04:50;16.20;71.50
10010;DHT22;5044;48.652;9.250;2023-02-22T12:07:31;16.10;64.00
10010;DHT22;5044;48.652;9.250;2023-02-22T12:10:07;16.00;61.70
10010;DHT22;5044;48.652;9.250;2023-02-22T12:12:53;15.90;65.90
10010;DHT22;5044;48.652;9.250;2023-02-22T12:15:27;15.90;62.00
10010;DHT22;5044;48.652;9.250;2023-02-22T12:18:01;15.80;59.90
10010;DHT22;5044;48.652;9.250;2023-02-22T12:20:35;15.60;60.40
10010;DHT22;5044;48.652;9.250;2023-02-22T12:23:12;15.40;61.80
10010;DHT22;5044;48.652;9.250;2023-02-22T12:25:45;15.00;59.90
10010;DHT22;5044;48.652;9.250;2023-02-22T12:28:17;14.60;62.60
10010;DHT22;5044;48.652;9.250;2023-02-22T12:30:51;14.60;61.80
10010;DHT22;5044;48.652;9.250;2023-02-22T12:33:22;14.60;63.60
10010;DHT22;5044;48.652;9.250;2023-02-22T12:35:53;14.80;63.10
10010;DHT22;5044;48.652;9.250;2023-02-22T12:38:25;14.90;63.70
10010;DHT22;5044;48.652;9.250;2023-02-22T12:41:00;14.90;63.80
10010;DHT22;5044;48.652;9.250;2023-02-22T12:43:34;14.80;61.80
10010;DHT22;5044;48.652;9.250;2023-02-22T12:46:04;14.50;64.10
10010;DHT22;5044;48.652;9.250;2023-02-22T12:48:42;14.70;65.00
10010;DHT22;5044;48.652;9.250;2023-02-22T12:51:22;14.90;65.30
10010;DHT22;5044;48.652;9.250;2023-02-22T12:53:55;15.30;65.30
10010;DHT22;5044;48.652;9.250;2023-02-22T12:56:30;15.10;63.30
10010;DHT22;5044;48.652;9.250;2023-02-22T12:59:02;14.70;63.50
10010;DHT22;5044;48.652;9.250;2023-02-22T13:01:36;14.40;66.30
10010;DHT22;5044;48.652;9.250;2023-02-22T13:04:06;14.50;66.10
10010;DHT22;5044;48.652;9.250;2023-02-22T13:06:43;14.50;67.20
10010;DHT22;5044;48.652;9.250;2023-02-22T13:09:30;14.50;70.60
10010;DHT22;5044;48.652;9.250;2023-02-22T13:12:03;14.50;67.70
10010;DHT22;5044;48.652;9.250;2023-02-22T13:14:39;14.70;67.20
10010;DHT22;5044;48.652;9.250;2023-02-22T13:17:14;15.10;67.60
10010;DHT22;5044;48.652;9.250;2023-02-22T13:19:50;15.40;64.80
10010;DHT22;5044;48.652;9.250;2023-02-22T13:22:21;15.30;66.70
10010;DHT22;5044;48.652;9.250;2023-02-22T13:24:57;15.10;64.30
10010;DHT22;5044;48.652;9.250;2023-02-22T13:27:28;15.30;65.90
10010;DHT22;5044;48.652;9.250;2023-02-22T13:29:57;15.20;65.30
10010;DHT22;5044;48.652;9.250;2023-02-22T13:32:40;15.10;63.60
10010;DHT22;5044;48.652;9.250;2023-02-22T13:35:23;15.30;65.60
10010;DHT22;5044;48.652;9.250;2023-02-22T13:38:01;15.10;66.60
10010;DHT22;5044;48.652;9.250;2023-02-22T13:40:50;14.70;67.30
10010;DHT22;5044;48.652;9.250;2023-02-22T13:43:41;14.90;71.60
10010;DHT22;5044;48.652;9.250;2023-02-22T13:49:42;14.60;68.60
10010;DHT22;5044;48.652;9.250;2023-02-22T13:52:16;14.90;71.50
10010;DHT22;5044;48.652;9.250;2023-02-22T13:54:48;15.20;75.40
10010;DHT22;5044;48.652;9.250;2023-02-22T13:57:21;14.90;69.10
10010;DHT22;5044;48.652;9.250;2023-02-22T14:00:19;14.80;70.00
10010;DHT22;5044;48.652;9.250;2023-02-22T14:02:59;14.70;74.30
10010;DHT22;5044;48.652;9.250;2023-02-22T14:05:46;15.00;79.20
10010;DHT22;5044;48.652;9.250;2023-02-22T14:08:41;15.00;65.50
10010;DHT22;5044;48.652;9.250;2023-02-22T14:11:39;14.70;73.10
10010;DHT22;5044;48.652;9.250;2023-02-22T14:14:16;14.70;68.30
10010;DHT22;5044;48.652;9.250;2023-02-22T14:16:43;14.70;71.60
10010;DHT22;5044;48.652;9.250;2023-02-22T14:19:16;14.90;69.60
10010;DHT22;5044;48.652;9.250;2023-02-22T14:21:57;15.00;76.00
10010;DHT22;5044;48.652;9.250;2023-02-22T14:24:28;15.20;72.30
10010;DHT22;5044;48.652;9.250;2023-02-22T14:27:01;15.10;69.80
10010;DHT22;5044;48.652;9.250;2023-02-22T14:29:29;15.20;79.90
10010;DHT22;5044;48.652;9.250;2023-02-22T14:32:02;15.40;75.80
10010;DHT22;5044;48.652;9.250;2023-02-22T14:34:41;15.50;75.20
10010;DHT22;5044;48.652;9.250;2023-02-22T14:37:13;15.40;67.20
10010;DHT22;5044;48.652;9.250;2023-02-22T14:39:45;15.20;68.30
10010;DHT22;5044;48.652;9.250;2023-02-22T14:42:16;15.10;72.60
10010;DHT22;5044;48.652;9.250;2023-02-22T14:44:53;15.20;69.00
10010;DHT22;5044;48.652;9.250;2023-02-22T14:47:26;15.30;70.30
10010;DHT22;5044;48.652;9.250;2023-02-22T14:49:57;15.30;68.80
10010;DHT22;5044;48.652;9.250;2023-02-22T14:52:28;15.40;69.80
10010;DHT22;5044;48.652;9.250;2023-02-22T14:55:03;15.40;68.00
10010;DHT22;5044;48.652;9.250;2023-02-22T14:57:39;15.40;68.50
10010;DHT22;5044;48.652;9.250;2023-02-22T15:00:14;15.30;67.00
10010;DHT22;5044;48.652;9.250;2023-02-22T15:02:47;15.00;64.30
10010;DHT22;5044;48.652;9.250;2023-02-22T15:05:16;15.00;66.10
10010;DHT22;5044;48.652;9.250;2023-02-22T15:07:52;15.10;75.30
10010;DHT22;5044;48.652;9.250;2023-02-22T15:10:24;15.30;79.70
10010;DHT22;5044;48.652;9.250;2023-02-22T15:12:53;15.50;74.70
10010;DHT22;5044;48.652;9.250;2023-02-22T15:15:33;15.50;79.50
10010;DHT22;5044;48.652;9.250;2023-02-22T15:18:01;15.50;69.60
10010;DHT22;5044;48.652;9.250;2023-02-22T15:20:33;15.10;66.00
10010;DHT22;5044;48.652;9.250;2023-02-22T15:23:00;14.90;69.40
10010;DHT22;5044;48.652;9.250;2023-02-22T15:25:29;14.80;67.60
10010;DHT22;5044;48.652;9.250;2023-02-22T15:28:01;14.90;77.80
10010;DHT22;5044;48.652;9.250;2023-02-22T15:30:30;14.70;71.80
10010;DHT22;5044;48.652;9.250;2023-02-22T15:33:14;14.70;71.00
10010;DHT22;5044;48.652;9.250;2023-02-22T15:35:42;14.70;73.20
10010;DHT22;5044;48.652;9.250;2023-02-22T15:38:18;14.70;73.10
10010;DHT22;5044;48.652;9.250;2023-02-22T15:40:58;14.70;79.70
10010;DHT22;5044;48.652;9.250;2023-02-22T15:43:27;14.80;80.90
10010;DHT22;5044;48.652;9.250;2023-02-22T15:45:55;14.80;73.50
10010;DHT22;5044;48.652;9.250;2023-02-22T15:48:22;14.70;78.70
10010;DHT22;5044;48.652;9.250;2023-02-22T15:51:02;14.60;81.50
10010;DHT22;5044;48.652;9.250;2023-02-22T15:53:37;14.60;76.90
10010;DHT22;5044;48.652;9.250;2023-02-22T15:56:11;14.50;74.60
10010;DHT22;5044;48.652;9.250;2023-02-22T15:58:39;14.30;73.10
10010;DHT22;5044;48.652;9.250;2023-02-22T16:01:08;14.20;77.80
10010;DHT22;5044;48.652;9.250;2023-02-22T16:03:38;14.10;74.90
10010;DHT22;5044;48.652;9.250;2023-02-22T16:06:11;13.70;77.00
10010;DHT22;5044;48.652;9.250;2023-02-22T16:08:46;13.60;79.70
10010;DHT22;5044;48.652;9.250;2023-02-22T16:11:20;13.60;81.90
10010;DHT22;5044;48.652;9.250;2023-02-22T16:13:56;13.40;80.50
10010;DHT22;5044;48.652;9.250;2023-02-22T16:16:28;13.40;79.00
10010;DHT22;5044;48.652;9.250;2023-02-22T16:19:20;13.20;83.90
10010;DHT22;5044;48.652;9.250;2023-02-22T16:21:50;13.20;85.30
10010;DHT22;5044;48.652;9.250;2023-02-22T16:24:29;13.20;85.50
10010;DHT22;5044;48.652;9.250;2023-02-22T16:27:15;13.20;90.20
10010;DHT22;5044;48.652;9.250;2023-02-22T16:29:43;13.20;85.10
10010;DHT22;5044;48.652;9.250;2023-02-22T16:32:11;13.00;86.70